Time;durP1;ratioP1;P1;durP2;ratioP2;P2;SDS_P1;SDS_P2;PMS_P1;PMS_P2;Temp;Humidity;BMP_temperature;BMP_pressure;BME280_temperature;BME280_humidity;BME280_pressure;Samples;Min_cycle;Max_cycle;Signal;HPM_P1;HPM_P2
2021/08/03 00:00:08;;;;;;;4.10;3.53;;;17.20;88.30;;;;;;4922872;29;20501;-52
2021/08/03 00:02:38;;;;;;;5.23;4.07;;;17.10;88.30;;;;;;4928286;29;20768;-53
2021/08/03 00:05:06;;;;;;;5.83;3.77;;;17.10;88.30;;;;;;4924753;29;20465;-53
2021/08/03 00:07:34;;;;;;;6.90;4.13;;;17.10;88.30;;;;;;4927571;29;20511;-53
2021/08/03 00:10:05;;;;;;;4.97;4.23;;;17.10;88.20;;;;;;4927530;29;21047;-53
2021/08/03 00:12:32;;;;;;;3.90;3.43;;;17.10;88.20;;;;;;4928621;29;20467;-53
2021/08/03 00:15:00;;;;;;;4.10;3.53;;;17.10;88.10;;;;;;4927587;29;20571;-53
2021/08/03 00:17:27;;;;;;;3.90;3.50;;;17.10;87.80;;;;;;4926604;29;20808;-53
2021/08/03 00:19:54;;;;;;;7.90;3.97;;;17.10;87.80;;;;;;4908781;29;20457;-53
2021/08/03 00:22:24;;;;;;;5.33;4.30;;;17.10;87.90;;;;;;4928432;29;20463;-53
2021/08/03 00:24:52;;;;;;;3.77;3.30;;;17.00;87.90;;;;;;4927444;29;20478;-53
2021/08/03 00:27:19;;;;;;;5.43;4.10;;;17.00;87.90;;;;;;4924169;29;20499;-53
2021/08/03 00:29:46;;;;;;;6.20;4.03;;;16.90;88.00;;;;;;4910250;29;20494;-53
2021/08/03 00:32:13;;;;;;;5.70;4.33;;;16.90;88.00;;;;;;4915102;29;20460;-53
2021/08/03 00:34:40;;;;;;;3.70;3.33;;;16.90;88.10;;;;;;4927540;29;20768;-53
2021/08/03 00:37:09;;;;;;;10.43;4.57;;;16.90;87.90;;;;;;4911218;29;20562;-53
2021/08/03 00:39:37;;;;;;;5.10;3.70;;;16.90;87.90;;;;;;4912754;29;20548;-53
2021/08/03 00:42:05;;;;;;;4.70;4.07;;;16.90;87.80;;;;;;4926752;29;20480;-53
2021/08/03 00:44:42;;;;;;;5.40;4.57;;;16.80;87.90;;;;;;4924982;29;20472;-53
2021/08/03 00:47:10;;;;;;;6.00;4.30;;;16.80;88.00;;;;;;4924372;29;20475;-53
2021/08/03 00:49:38;;;;;;;5.70;4.20;;;16.80;88.20;;;;;;4910654;29;20492;-53
2021/08/03 00:52:07;;;;;;;4.97;3.83;;;16.80;88.20;;;;;;4927406;29;20905;-53
2021/08/03 00:54:35;;;;;;;7.17;4.10;;;16.80;88.30;;;;;;4925994;29;20464;-53
2021/08/03 00:57:02;;;;;;;4.50;3.97;;;16.80;88.30;;;;;;4922403;29;20465;-53
2021/08/03 00:59:29;;;;;;;5.70;5.03;;;16.80;88.40;;;;;;4926281;29;20559;-52
2021/08/03 01:01:56;;;;;;;6.23;5.00;;;16.80;88.40;;;;;;4925705;29;20491;-52
2021/08/03 01:04:23;;;;;;;5.13;3.73;;;16.80;88.60;;;;;;4927437;29;20464;-53
2021/08/03 01:07:22;;;;;;;4.80;3.60;;;16.80;88.70;;;;;;4926732;29;20498;-53
2021/08/03 01:10:11;;;;;;;5.30;4.33;;;16.80;88.70;;;;;;4916288;29;20500;-53
2021/08/03 01:12:47;;;;;;;4.80;3.90;;;16.80;88.70;;;;;;4926239;29;20999;-53
2021/08/03 01:15:51;;;;;;;7.20;4.37;;;16.80;88.70;;;;;;4920053;29;20475;-53
2021/08/03 01:18:35;;;;;;;4.00;3.60;;;16.80;88.70;;;;;;4927785;29;20463;-53
2021/08/03 01:21:20;;;;;;;5.43;4.53;;;16.80;88.70;;;;;;4927000;29;20973;-53
2021/08/03 01:24:09;;;;;;;4.70;4.20;;;16.80;88.80;;;;;;4922988;29;20482;-53
2021/08/03 01:27:02;;;;;;;6.17;4.30;;;16.80;88.90;;;;;;4924019;29;20472;-53
2021/08/03 01:29:30;;;;;;;5.67;4.90;;;16.80;88.90;;;;;;4926601;29;20496;-53
2021/08/03 01:32:07;;;;;;;4.53;4.13;;;16.80;89.00;;;;;;4925697;29;20980;-53
2021/08/03 01:34:39;;;;;;;5.57;4.23;;;16.80;89.00;;;;;;4925257;29;20506;-53
2021/08/03 01:37:07;;;;;;;5.17;4.67;;;16.80;89.10;;;;;;4925238;29;20463;-53
2021/08/03 01:39:42;;;;;;;5.30;4.60;;;16.90;89.00;;;;;;4924475;29;20464;-53
2021/08/03 01:42:10;;;;;;;4.40;4.00;;;16.80;89.00;;;;;;4924240;29;20646;-53
2021/08/03 01:44:40;;;;;;;4.73;3.53;;;16.90;89.10;;;;;;4922675;29;20463;-53
2021/08/03 01:47:07;;;;;;;4.73;4.23;;;16.90;89.00;;;;;;4928220;29;20957;-53
2021/08/03 01:49:37;;;;;;;12.67;5.57;;;16.90;89.10;;;;;;4909038;29;20492;-53
2021/08/03 01:52:08;;;;;;;5.43;4.63;;;16.80;89.00;;;;;;4909626;29;20456;-53
2021/08/03 01:54:35;;;;;;;4.60;4.00;;;16.90;89.10;;;;;;4930061;29;20501;-53
2021/08/03 01:57:03;;;;;;;4.30;3.90;;;16.90;89.10;;;;;;4909562;29;20456;-53
2021/08/03 01:59:30;;;;;;;6.83;4.43;;;16.90;89.00;;;;;;4927416;29;20974;-52
2021/08/03 02:01:58;;;;;;;5.83;3.70;;;16.90;89.00;;;;;;4922562;29;20536;-53
2021/08/03 02:04:28;;;;;;;5.00;3.63;;;16.90;89.00;;;;;;4907144;29;20823;-53
2021/08/03 02:06:55;;;;;;;8.10;4.17;;;16.90;88.90;;;;;;4925398;29;20486;-53
2021/08/03 02:09:23;;;;;;;6.70;4.20;;;16.90;88.90;;;;;;4927008;29;20488;-53
2021/08/03 02:11:51;;;;;;;5.37;4.60;;;16.80;88.90;;;;;;4927000;29;20770;-53
2021/08/03 02:14:21;;;;;;;5.90;4.30;;;16.80;88.90;;;;;;4924743;29;20534;-53
2021/08/03 02:16:48;;;;;;;6.00;4.73;;;16.80;88.90;;;;;;4926608;29;20459;-53
2021/08/03 02:19:15;;;;;;;8.27;4.80;;;16.80;88.90;;;;;;4926446;29;20460;-53
2021/08/03 02:21:43;;;;;;;10.57;4.57;;;16.80;88.90;;;;;;4926226;29;20968;-53
2021/08/03 02:24:10;;;;;;;5.03;4.50;;;16.80;88.90;;;;;;4928246;29;20467;-52
2021/08/03 02:26:37;;;;;;;4.73;3.97;;;16.80;88.80;;;;;;4923097;29;21196;-53
2021/08/03 02:29:07;;;;;;;5.20;4.03;;;16.80;88.80;;;;;;4924736;29;20514;-53
2021/08/03 02:31:49;;;;;;;7.23;4.13;;;16.70;88.70;;;;;;4927424;29;20468;-53
2021/08/03 02:34:28;;;;;;;7.27;4.20;;;16.70;88.60;;;;;;4931303;29;20448;-53
2021/08/03 02:37:01;;;;;;;6.60;4.40;;;16.70;88.50;;;;;;4930291;29;20463;-53
2021/08/03 02:39:29;;;;;;;6.67;4.40;;;16.70;88.50;;;;;;4929405;29;20471;-53
2021/08/03 02:41:58;;;;;;;8.90;4.67;;;16.60;88.50;;;;;;4922750;29;20459;-53
2021/08/03 02:44:26;;;;;;;7.60;3.97;;;16.60;88.40;;;;;;4929561;29;20472;-53
2021/08/03 02:46:55;;;;;;;7.30;4.13;;;16.60;88.40;;;;;;4926302;29;20472;-53
2021/08/03 02:49:45;;;;;;;7.70;3.63;;;16.60;88.40;;;;;;4929765;29;20494;-53
2021/08/03 02:52:13;;;;;;;8.50;4.30;;;16.60;88.40;;;;;;4929077;29;20460;-53
2021/08/03 02:54:43;;;;;;;10.73;3.57;;;16.50;88.40;;;;;;4910106;29;20461;-53
2021/08/03 02:57:12;;;;;;;5.80;4.60;;;16.50;88.40;;;;;;4931272;29;20456;-50
2021/08/03 02:59:42;;;;;;;8.50;4.63;;;16.50;88.40;;;;;;4931335;29;20486;-50
2021/08/03 03:02:14;;;;;;;4.77;4.03;;;16.50;88.40;;;;;;4927519;29;20456;-50
2021/08/03 03:05:07;;;;;;;3.60;3.27;;;16.50;88.50;;;;;;4924891;29;20481;-50
2021/08/03 03:07:39;;;;;;;5.70;4.37;;;16.50;88.40;;;;;;4914135;29;20490;-50
2021/08/03 03:10:12;;;;;;;5.70;4.00;;;16.50;88.40;;;;;;4924974;29;20583;-50
2021/08/03 03:12:43;;;;;;;4.20;3.40;;;16.50;88.50;;;;;;4929932;29;20460;-50
2021/08/03 03:15:14;;;;;;;4.80;4.33;;;16.40;88.50;;;;;;4925646;29;20983;-50
2021/08/03 03:17:41;;;;;;;4.37;3.60;;;16.40;88.50;;;;;;4911557;29;20466;-50
2021/08/03 03:20:09;;;;;;;5.13;4.63;;;16.40;88.40;;;;;;4930858;29;20499;-50
2021/08/03 03:22:41;;;;;;;5.50;3.40;;;16.40;88.40;;;;;;4931978;29;20464;-50
2021/08/03 03:25:16;;;;;;;5.63;3.87;;;16.40;88.40;;;;;;4928636;29;20554;-50
2021/08/03 03:27:44;;;;;;;6.07;4.20;;;16.40;88.40;;;;;;4928239;29;20467;-50
2021/08/03 03:30:16;;;;;;;5.90;4.67;;;16.40;88.40;;;;;;4928452;29;20504;-50
2021/08/03 03:32:45;;;;;;;5.90;4.67;;;16.40;88.20;;;;;;4913200;29;20460;-50
2021/08/03 03:35:14;;;;;;;4.23;3.63;;;16.30;88.20;;;;;;4928925;29;20463;-50
2021/08/03 03:37:44;;;;;;;5.20;3.70;;;16.30;88.20;;;;;;4911574;29;20460;-51
2021/08/03 03:40:15;;;;;;;6.17;4.03;;;16.30;88.30;;;;;;4911538;29;20499;-50
2021/08/03 03:42:42;;;;;;;8.87;4.03;;;16.30;88.40;;;;;;4923674;29;20973;-50
2021/08/03 03:45:11;;;;;;;6.90;3.90;;;16.30;88.40;;;;;;4924650;29;20464;-50
2021/08/03 03:47:46;;;;;;;4.60;3.83;;;16.30;88.40;;;;;;4928642;29;20568;-50
2021/08/03 03:50:20;;;;;;;5.70;4.13;;;16.30;88.40;;;;;;4928838;29;20498;-50
2021/08/03 03:52:59;;;;;;;9.17;4.90;;;16.30;88.50;;;;;;4925581;29;20470;-50
2021/08/03 03:55:27;;;;;;;6.80;3.93;;;16.30;88.60;;;;;;4911640;29;20964;-50
2021/08/03 03:57:54;;;;;;;4.90;3.50;;;16.30;88.60;;;;;;4927707;29;20507;-50
2021/08/03 04:00:22;;;;;;;4.87;3.63;;;16.30;88.60;;;;;;4927348;29;20503;-50
2021/08/03 04:02:50;;;;;;;7.70;4.33;;;16.30;88.60;;;;;;4923118;29;20950;-50
2021/08/03 04:05:18;;;;;;;8.23;4.13;;;16.30;88.50;;;;;;4910976;29;20464;-50
2021/08/03 04:07:49;;;;;;;5.50;4.00;;;16.30;88.30;;;;;;4926508;29;20472;-50
2021/08/03 04:10:18;;;;;;;5.53;3.97;;;16.30;88.30;;;;;;4924325;29;20491;-50
2021/08/03 04:12:46;;;;;;;6.90;4.90;;;16.20;88.20;;;;;;4911432;29;20468;-50
2021/08/03 04:15:14;;;;;;;4.83;4.43;;;16.20;88.30;;;;;;4927170;29;20547;-50
2021/08/03 04:17:41;;;;;;;7.50;4.50;;;16.20;88.40;;;;;;4925401;29;21922;-51
2021/08/03 04:20:09;;;;;;;4.77;3.87;;;16.20;88.40;;;;;;4913035;29;20467;-50
2021/08/03 04:22:36;;;;;;;8.80;4.17;;;16.20;88.40;;;;;;4927569;29;20831;-50
2021/08/03 04:25:03;;;;;;;6.80;4.27;;;16.20;88.50;;;;;;4913543;29;20878;-50
2021/08/03 04:27:31;;;;;;;4.00;3.60;;;16.20;88.50;;;;;;4926466;29;20471;-50
2021/08/03 04:29:58;;;;;;;7.90;4.93;;;16.20;88.60;;;;;;4926966;29;20487;-50
2021/08/03 04:32:25;;;;;;;7.27;4.70;;;16.20;88.70;;;;;;4920855;29;20717;-50
2021/08/03 04:34:51;;;;;;;7.73;4.70;;;16.30;88.70;;;;;;4910610;29;20808;-50
2021/08/03 04:37:18;;;;;;;6.87;4.60;;;16.30;88.80;;;;;;4927864;29;20563;-50
2021/08/03 04:39:45;;;;;;;6.70;4.47;;;16.30;88.80;;;;;;4923376;29;20467;-50
2021/08/03 04:42:12;;;;;;;5.10;4.17;;;16.30;88.80;;;;;;4926292;29;20456;-50
2021/08/03 04:44:38;;;;;;;8.90;5.80;;;16.30;88.80;;;;;;4924851;29;20469;-50
2021/08/03 04:47:05;;;;;;;6.50;4.80;;;16.40;88.80;;;;;;4925598;29;20531;-50
2021/08/03 04:49:32;;;;;;;8.17;4.97;;;16.40;88.80;;;;;;4924038;29;20464;-50
2021/08/03 04:52:04;;;;;;;6.57;5.40;;;16.40;88.90;;;;;;4926233;29;20487;-50
2021/08/03 04:54:31;;;;;;;6.30;4.50;;;16.40;89.10;;;;;;4927153;29;20471;-50
2021/08/03 04:56:58;;;;;;;9.67;5.00;;;16.40;88.90;;;;;;4924157;29;20465;-50
2021/08/03 04:59:24;;;;;;;7.47;5.10;;;16.50;89.00;;;;;;4925043;29;20465;-52
2021/08/03 05:01:51;;;;;;;13.07;5.30;;;16.50;88.90;;;;;;4923690;29;20556;-50
2021/08/03 05:04:18;;;;;;;13.00;6.27;;;16.60;88.80;;;;;;4914034;29;20799;-50
2021/08/03 05:06:45;;;;;;;9.40;6.27;;;16.60;88.80;;;;;;4923991;29;20551;-50
2021/08/03 05:09:11;;;;;;;9.50;7.50;;;16.60;88.50;;;;;;4930386;29;20965;-50
2021/08/03 05:11:38;;;;;;;12.07;8.60;;;16.60;88.50;;;;;;4928536;29;20492;-50
2021/08/03 05:14:05;;;;;;;16.13;10.93;;;16.60;88.60;;;;;;4928310;29;20487;-50
2021/08/03 05:16:32;;;;;;;13.77;9.80;;;16.70;88.70;;;;;;4925525;29;20495;-50
2021/08/03 05:18:59;;;;;;;15.93;10.70;;;16.70;88.60;;;;;;4926833;29;20520;-50
2021/08/03 05:21:25;;;;;;;17.50;11.77;;;16.70;88.50;;;;;;4912048;29;20464;-50
2021/08/03 05:23:52;;;;;;;16.80;11.53;;;16.70;88.60;;;;;;4926532;29;20464;-50
2021/08/03 05:26:20;;;;;;;14.80;11.17;;;16.70;88.70;;;;;;4931520;29;20448;-50
2021/08/03 05:28:47;;;;;;;18.07;11.27;;;16.70;88.60;;;;;;4927956;29;20472;-50
2021/08/03 05:31:14;;;;;;;19.37;12.80;;;16.80;88.60;;;;;;4925587;29;20571;-50
2021/08/03 05:33:41;;;;;;;16.70;12.73;;;16.80;88.50;;;;;;4927249;29;21026;-50
2021/08/03 05:36:08;;;;;;;17.30;12.53;;;16.90;88.00;;;;;;4925094;29;20468;-50
2021/08/03 05:38:34;;;;;;;19.07;12.00;;;16.90;87.70;;;;;;4929317;29;20476;-50
2021/08/03 05:41:01;;;;;;;22.97;14.07;;;17.00;87.20;;;;;;4924602;29;20999;-50
2021/08/03 05:43:28;;;;;;;22.60;14.57;;;17.00;87.40;;;;;;4912849;29;20456;-50
2021/08/03 05:45:55;;;;;;;18.20;14.70;;;17.00;87.60;;;;;;4928645;29;20461;-50
2021/08/03 05:48:22;;;;;;;19.60;14.33;;;17.00;87.70;;;;;;4928836;29;20471;-50
2021/08/03 05:50:49;;;;;;;21.40;13.27;;;17.00;87.80;;;;;;4906152;29;20494;-50
2021/08/03 05:53:15;;;;;;;21.13;13.50;;;17.10;87.30;;;;;;4927020;29;20534;-50
2021/08/03 05:55:42;;;;;;;19.27;12.90;;;17.10;87.30;;;;;;4924197;29;20888;-50
2021/08/03 05:58:09;;;;;;;19.70;13.40;;;17.10;87.30;;;;;;4925358;29;20479;-50
2021/08/03 06:00:38;;;;;;;22.33;13.60;;;17.10;87.50;;;;;;4911518;29;20574;-50
2021/08/03 06:03:05;;;;;;;18.33;13.83;;;17.10;87.70;;;;;;4926915;29;21024;-50
2021/08/03 06:05:35;;;;;;;23.13;14.80;;;17.10;87.80;;;;;;4925727;29;20469;-50
2021/08/03 06:08:06;;;;;;;21.17;14.77;;;17.20;87.90;;;;;;4916641;29;20834;-50
2021/08/03 06:10:33;;;;;;;20.80;15.90;;;17.20;87.40;;;;;;4929214;29;20499;-50
2021/08/03 06:13:02;;;;;;;24.33;16.87;;;17.20;87.50;;;;;;4930369;29;20469;-50
2021/08/03 06:15:33;;;;;;;20.07;14.30;;;17.20;87.30;;;;;;4928397;29;20475;-50
2021/08/03 06:18:28;;;;;;;26.60;17.90;;;17.30;87.30;;;;;;4926667;29;20459;-50
2021/08/03 06:20:56;;;;;;;26.00;17.83;;;17.30;87.00;;;;;;4925016;29;20458;-50
2021/08/03 06:23:23;;;;;;;24.80;18.27;;;17.30;87.00;;;;;;4930034;29;20475;-50
2021/08/03 06:25:52;;;;;;;23.60;16.73;;;17.40;86.50;;;;;;4930880;29;20454;-50
2021/08/03 06:28:22;;;;;;;20.67;15.50;;;17.40;86.50;;;;;;4926670;29;20467;-50
2021/08/03 06:30:50;;;;;;;22.80;16.20;;;17.40;86.60;;;;;;4932478;29;21203;-50
2021/08/03 06:33:20;;;;;;;23.93;16.10;;;17.50;86.10;;;;;;4931913;29;20455;-50
2021/08/03 06:35:48;;;;;;;24.33;16.83;;;17.50;86.20;;;;;;4933672;29;20448;-50
2021/08/03 06:38:15;;;;;;;24.80;17.40;;;17.50;86.30;;;;;;4928796;29;20468;-50
2021/08/03 06:40:46;;;;;;;24.67;16.57;;;17.50;86.30;;;;;;4929094;29;20467;-50
2021/08/03 06:43:17;;;;;;;25.10;15.40;;;17.50;86.30;;;;;;4928750;29;20847;-50
2021/08/03 06:45:51;;;;;;;20.40;14.70;;;17.50;86.20;;;;;;4913948;29;20527;-50
2021/08/03 06:48:31;;;;;;;18.83;13.80;;;17.50;86.30;;;;;;4928440;29;20815;-50
2021/08/03 06:51:08;;;;;;;20.00;15.10;;;17.50;86.40;;;;;;4926118;29;20580;-50
2021/08/03 06:53:37;;;;;;;16.33;12.80;;;17.60;86.40;;;;;;4928404;29;20464;-50
2021/08/03 06:56:07;;;;;;;18.80;12.37;;;17.50;86.50;;;;;;4930976;29;21028;-50
2021/08/03 06:58:48;;;;;;;14.67;12.10;;;17.60;86.50;;;;;;4927770;29;20875;-50
2021/08/03 07:01:22;;;;;;;17.50;12.60;;;17.60;86.30;;;;;;4925850;29;20507;-50
2021/08/03 07:03:55;;;;;;;14.33;12.57;;;17.70;86.50;;;;;;4926167;29;21177;-50
2021/08/03 07:06:23;;;;;;;14.83;11.20;;;17.70;86.40;;;;;;4929470;29;20460;-50
2021/08/03 07:08:52;;;;;;;15.33;10.50;;;17.80;86.40;;;;;;4911521;29;20885;-50
2021/08/03 07:11:20;;;;;;;13.57;11.30;;;17.90;85.90;;;;;;4906894;29;20782;-50
2021/08/03 07:13:48;;;;;;;14.13;10.27;;;17.90;85.70;;;;;;4912451;29;20478;-50
2021/08/03 07:16:15;;;;;;;14.40;10.60;;;18.00;85.60;;;;;;4926571;29;20455;-50
2021/08/03 07:18:43;;;;;;;14.33;11.00;;;18.00;85.50;;;;;;4911768;29;20472;-50
2021/08/03 07:21:11;;;;;;;13.33;10.53;;;18.00;85.20;;;;;;4913051;29;20479;-50
2021/08/03 07:23:43;;;;;;;13.50;10.00;;;18.00;85.00;;;;;;4921742;29;20463;-50
2021/08/03 07:26:10;;;;;;;12.30;8.67;;;18.10;84.30;;;;;;4910806;29;20468;-50
2021/08/03 07:28:36;;;;;;;11.10;9.20;;;18.10;84.40;;;;;;4923744;29;20571;-50
2021/08/03 07:31:03;;;;;;;12.50;9.70;;;18.10;84.40;;;;;;4927232;29;20483;-50
2021/08/03 07:33:30;;;;;;;11.77;9.40;;;18.00;84.50;;;;;;4926701;29;20475;-50
2021/08/03 07:35:57;;;;;;;11.90;10.10;;;18.00;84.60;;;;;;4926719;29;20551;-50
2021/08/03 07:38:24;;;;;;;17.40;10.70;;;18.00;84.90;;;;;;4929573;29;20474;-50
2021/08/03 07:40:50;;;;;;;17.37;11.93;;;18.00;85.00;;;;;;4926952;29;20460;-50
2021/08/03 07:43:17;;;;;;;12.30;9.27;;;18.00;85.10;;;;;;4929189;29;21007;-50
2021/08/03 07:45:44;;;;;;;10.73;7.93;;;17.90;85.10;;;;;;4907335;29;20471;-50
2021/08/03 07:48:11;;;;;;;9.60;7.33;;;18.00;85.10;;;;;;4927843;29;20481;-50
2021/08/03 07:50:37;;;;;;;10.07;8.10;;;17.90;85.20;;;;;;4924741;29;20464;-50
2021/08/03 07:53:04;;;;;;;10.50;8.60;;;17.90;85.40;;;;;;4923449;29;20464;-50
2021/08/03 07:55:37;;;;;;;13.27;9.17;;;17.90;85.50;;;;;;4925594;29;20844;-51
2021/08/03 07:58:04;;;;;;;6.20;5.30;;;17.90;85.80;;;;;;4907608;29;20474;-51
2021/08/03 08:00:32;;;;;;;5.93;4.23;;;18.00;86.10;;;;;;4927423;29;20514;-51
2021/08/03 08:03:00;;;;;;;5.67;4.50;;;18.00;85.50;;;;;;4926626;29;20496;-51
2021/08/03 08:05:28;;;;;;;5.70;4.80;;;18.00;84.90;;;;;;4923437;29;20456;-50
2021/08/03 08:07:58;;;;;;;5.27;4.37;;;18.00;85.00;;;;;;4912720;29;20464;-50
2021/08/03 08:10:25;;;;;;;7.87;4.90;;;17.90;85.50;;;;;;4924931;29;21985;-50
2021/08/03 08:12:52;;;;;;;6.50;5.10;;;18.00;86.00;;;;;;4926663;29;20547;-50
2021/08/03 08:15:18;;;;;;;5.27;4.80;;;18.00;86.10;;;;;;4925330;29;20465;-50
2021/08/03 08:17:45;;;;;;;5.10;4.50;;;18.00;86.20;;;;;;4926509;29;20476;-50
2021/08/03 08:20:13;;;;;;;5.97;4.43;;;18.10;85.90;;;;;;4926823;29;20943;-50
2021/08/03 08:22:42;;;;;;;7.10;5.07;;;18.10;85.50;;;;;;4925441;29;20491;-50
2021/08/03 08:25:11;;;;;;;6.07;4.90;;;18.10;85.60;;;;;;4923712;29;20469;-50
2021/08/03 08:27:39;;;;;;;4.90;4.30;;;18.10;85.80;;;;;;4912424;29;20452;-50
2021/08/03 08:30:08;;;;;;;6.00;4.63;;;18.10;85.90;;;;;;4909017;29;20466;-50
2021/08/03 08:32:35;;;;;;;6.93;4.17;;;18.00;86.00;;;;;;4907723;29;21012;-50
2021/08/03 08:35:04;;;;;;;5.60;4.17;;;18.10;85.90;;;;;;4930863;29;20520;-50
2021/08/03 08:37:30;;;;;;;6.80;4.20;;;18.10;85.90;;;;;;4916256;29;20958;-50
2021/08/03 08:39:57;;;;;;;5.50;4.63;;;18.10;86.00;;;;;;4924132;29;20491;-50
2021/08/03 08:42:25;;;;;;;4.33;3.90;;;18.20;86.10;;;;;;4919355;29;20560;-50
2021/08/03 08:44:52;;;;;;;5.40;3.73;;;18.20;85.60;;;;;;4927703;29;20466;-50
2021/08/03 08:47:19;;;;;;;5.60;5.03;;;18.20;85.70;;;;;;4928700;29;20476;-51
2021/08/03 08:49:47;;;;;;;5.47;4.97;;;18.20;85.80;;;;;;4925809;29;20840;-51
2021/08/03 08:52:14;;;;;;;5.50;4.47;;;18.20;85.90;;;;;;4923847;29;20483;-51
2021/08/03 08:54:41;;;;;;;5.93;4.63;;;18.20;86.00;;;;;;4927880;29;20472;-51
2021/08/03 08:57:09;;;;;;;5.37;4.17;;;18.20;86.00;;;;;;4911336;29;20466;-51
2021/08/03 08:59:36;;;;;;;5.43;4.53;;;18.20;86.00;;;;;;4926310;29;20460;-51
2021/08/03 09:02:04;;;;;;;4.37;3.90;;;18.20;86.00;;;;;;4908795;29;20468;-51
2021/08/03 09:04:31;;;;;;;4.90;4.40;;;18.20;85.90;;;;;;4926242;29;20869;-50
2021/08/03 09:07:03;;;;;;;5.27;4.77;;;18.30;85.60;;;;;;4927720;29;20468;-50
2021/08/03 09:09:39;;;;;;;4.90;4.10;;;18.30;85.70;;;;;;4927579;29;20468;-50
2021/08/03 09:12:06;;;;;;;6.63;3.80;;;18.30;85.80;;;;;;4906843;29;20502;-50
2021/08/03 09:14:34;;;;;;;4.90;4.37;;;18.30;85.90;;;;;;4927062;29;20455;-50
2021/08/03 09:17:03;;;;;;;5.00;4.50;;;18.30;85.90;;;;;;4925423;29;20462;-50
2021/08/03 09:19:38;;;;;;;4.50;4.10;;;18.30;85.80;;;;;;4924602;29;20479;-50
2021/08/03 09:22:09;;;;;;;4.50;4.10;;;18.30;85.80;;;;;;4927516;29;20491;-50
2021/08/03 09:24:36;;;;;;;5.47;3.90;;;18.40;85.90;;;;;;4926954;29;20464;-50
2021/08/03 09:27:03;;;;;;;4.37;3.97;;;18.40;85.80;;;;;;4926545;29;20470;-51
2021/08/03 09:29:45;;;;;;;3.80;3.30;;;18.50;85.30;;;;;;4928663;29;21005;-51
2021/08/03 09:32:12;;;;;;;4.13;2.80;;;18.50;84.60;;;;;;4919545;29;20506;-51
2021/08/03 09:34:39;;;;;;;3.20;2.90;;;18.40;84.70;;;;;;4930068;29;20455;-51
2021/08/03 09:37:06;;;;;;;3.60;3.20;;;18.40;84.60;;;;;;4925692;29;20464;-51
2021/08/03 09:39:47;;;;;;;10.03;3.00;;;18.40;84.90;;;;;;4928638;29;20494;-51
2021/08/03 09:42:23;;;;;;;7.60;3.00;;;18.40;84.90;;;;;;4911862;29;20469;-51
2021/08/03 09:44:53;;;;;;;5.27;3.03;;;18.30;85.00;;;;;;4933133;29;20480;-51
2021/08/03 09:47:30;;;;;;;7.00;3.50;;;18.20;85.20;;;;;;4927505;29;20471;-51
2021/08/03 09:49:59;;;;;;;4.67;3.47;;;18.30;85.00;;;;;;4931343;29;20828;-51
2021/08/03 09:52:28;;;;;;;5.63;3.73;;;18.20;85.20;;;;;;4916872;29;21020;-51
2021/08/03 09:55:11;;;;;;;6.50;4.30;;;18.20;85.40;;;;;;4930289;29;20444;-51
2021/08/03 09:57:40;;;;;;;8.07;3.17;;;18.10;85.50;;;;;;4932768;29;20464;-50
2021/08/03 10:00:27;;;;;;;2.83;2.20;;;18.10;84.90;;;;;;4930343;29;20525;-51
2021/08/03 10:02:55;;;;;;;1.67;1.40;;;18.00;85.80;;;;;;4928362;29;20988;-51
2021/08/03 10:05:22;;;;;;;2.30;2.10;;;17.90;86.10;;;;;;4926931;29;20950;-51
2021/08/03 10:07:49;;;;;;;2.67;1.70;;;17.90;86.30;;;;;;4923978;29;20709;-51
2021/08/03 10:10:16;;;;;;;2.50;2.30;;;17.90;86.40;;;;;;4928346;29;20972;-50
2021/08/03 10:12:43;;;;;;;2.30;2.10;;;17.80;86.40;;;;;;4928649;29;20996;-51
2021/08/03 10:15:10;;;;;;;2.10;1.90;;;17.80;86.50;;;;;;4912731;29;20459;-50
2021/08/03 10:17:40;;;;;;;3.37;2.73;;;17.80;86.60;;;;;;4929319;29;20887;-51
2021/08/03 10:20:11;;;;;;;2.73;2.40;;;17.90;86.60;;;;;;4931980;29;20493;-50
2021/08/03 10:22:59;;;;;;;2.63;2.43;;;18.00;86.80;;;;;;4925041;29;20471;-50
2021/08/03 10:25:40;;;;;;;2.70;2.50;;;18.10;86.80;;;;;;4927184;29;20465;-50
2021/08/03 10:28:26;;;;;;;3.30;2.70;;;18.20;86.80;;;;;;4928696;29;20467;-51
2021/08/03 10:30:54;;;;;;;3.73;2.83;;;18.40;86.50;;;;;;4927469;29;20825;-50
2021/08/03 10:33:44;;;;;;;4.20;3.80;;;18.60;86.00;;;;;;4931555;29;21019;-50
2021/08/03 10:36:35;;;;;;;3.27;2.97;;;18.60;85.30;;;;;;4929993;29;20816;-50
2021/08/03 10:39:09;;;;;;;3.00;2.70;;;18.60;85.60;;;;;;4931342;29;20459;-50
2021/08/03 10:42:00;;;;;;;2.93;2.63;;;18.70;85.70;;;;;;4927996;29;20467;-50
2021/08/03 10:44:50;;;;;;;4.67;2.57;;;18.70;85.30;;;;;;4930975;29;20484;-50
2021/08/03 10:47:33;;;;;;;2.50;1.77;;;18.80;84.90;;;;;;4931311;29;20466;-50
2021/08/03 10:50:07;;;;;;;2.10;1.90;;;18.80;84.50;;;;;;4930757;29;20444;-50
2021/08/03 10:52:48;;;;;;;4.50;2.10;;;18.70;84.60;;;;;;4927167;29;20779;-50
2021/08/03 10:55:51;;;;;;;2.27;1.50;;;18.60;84.70;;;;;;4926784;29;20460;-50
2021/08/03 10:58:19;;;;;;;2.57;1.60;;;18.70;84.20;;;;;;4926548;29;20471;-50
2021/08/03 11:00:54;;;;;;;1.70;1.60;;;18.60;84.30;;;;;;4928109;29;20479;-50
2021/08/03 11:03:33;;;;;;;2.60;2.00;;;18.60;84.60;;;;;;4929347;29;20460;-50
2021/08/03 11:06:03;;;;;;;1.83;1.63;;;18.60;84.60;;;;;;4928467;29;20471;-50
2021/08/03 11:08:31;;;;;;;2.43;1.40;;;18.50;84.40;;;;;;4928574;29;20472;-50
2021/08/03 11:11:05;;;;;;;1.57;1.33;;;18.60;84.20;;;;;;4931868;29;20992;-50
2021/08/03 11:13:51;;;;;;;2.53;2.13;;;18.60;84.50;;;;;;4933979;29;20586;-50
2021/08/03 11:16:18;;;;;;;1.90;1.63;;;18.50;84.70;;;;;;4930684;29;20456;-50
2021/08/03 11:18:47;;;;;;;1.77;1.60;;;18.50;84.70;;;;;;4924252;29;20507;-50
2021/08/03 11:21:16;;;;;;;3.80;1.90;;;18.50;84.90;;;;;;4927867;29;20889;-50
2021/08/03 11:24:15;;;;;;;2.10;1.90;;;18.50;85.10;;;;;;4917026;29;20460;-50
2021/08/03 11:26:47;;;;;;;2.13;1.93;;;18.40;85.30;;;;;;4931204;29;20965;-50
2021/08/03 11:29:16;;;;;;;2.97;1.97;;;18.50;85.30;;;;;;4925099;29;20464;-50
2021/08/03 11:31:43;;;;;;;2.43;1.73;;;18.50;85.50;;;;;;4927290;29;21063;-50
2021/08/03 11:34:12;;;;;;;3.67;2.23;;;18.60;85.80;;;;;;4916235;29;20464;-50
2021/08/03 11:36:58;;;;;;;2.10;1.60;;;18.70;85.90;;;;;;4914728;29;20465;-50
2021/08/03 11:39:31;;;;;;;1.47;1.33;;;18.80;85.80;;;;;;4929892;29;20478;-50
2021/08/03 11:41:58;;;;;;;2.07;1.23;;;19.00;84.80;;;;;;4929616;29;20455;-50
2021/08/03 11:44:25;;;;;;;1.53;1.43;;;19.10;84.40;;;;;;4931896;29;20561;-50
2021/08/03 11:46:55;;;;;;;1.43;1.33;;;19.20;83.60;;;;;;4928369;29;20488;-50
2021/08/03 11:49:31;;;;;;;1.60;1.33;;;19.30;83.50;;;;;;4930692;29;21071;-50
2021/08/03 11:52:14;;;;;;;1.53;1.17;;;19.30;83.60;;;;;;4931200;29;20499;-50
2021/08/03 11:54:42;;;;;;;1.00;1.00;;;19.40;80.50;;;;;;4930300;29;20456;-50
2021/08/03 11:57:41;;;;;;;2.00;1.60;;;19.50;79.50;;;;;;4929181;29;20459;-50
2021/08/03 12:00:14;;;;;;;1.40;1.30;;;19.50;80.60;;;;;;4915812;29;20496;-50
2021/08/03 12:02:43;;;;;;;2.00;1.40;;;19.50;81.60;;;;;;4929256;29;20474;-50
2021/08/03 12:05:23;;;;;;;1.33;0.97;;;19.50;80.50;;;;;;4930860;29;20515;-50
2021/08/03 12:08:09;;;;;;;1.70;1.03;;;19.50;80.30;;;;;;4931438;29;20467;-50
2021/08/03 12:10:47;;;;;;;1.57;1.47;;;19.60;80.30;;;;;;4932468;29;20531;-50
2021/08/03 12:13:31;;;;;;;2.13;1.00;;;19.70;80.30;;;;;;4924048;29;20855;-50
2021/08/03 12:16:00;;;;;;;3.07;1.00;;;19.80;78.00;;;;;;4913361;29;20868;-50
2021/08/03 12:18:38;;;;;;;0.97;0.80;;;19.90;78.10;;;;;;4928332;29;20842;-50
2021/08/03 12:21:05;;;;;;;0.80;0.77;;;20.00;77.00;;;;;;4929361;29;20463;-50
2021/08/03 12:23:34;;;;;;;1.20;1.10;;;20.00;77.30;;;;;;4929860;29;21003;-50
2021/08/03 12:26:17;;;;;;;3.80;1.87;;;20.00;77.80;;;;;;4924939;29;20830;-50
2021/08/03 12:28:57;;;;;;;1.73;1.63;;;20.00;78.10;;;;;;4931216;29;20468;-50
2021/08/03 12:31:31;;;;;;;1.30;1.20;;;20.00;78.10;;;;;;4926764;29;21190;-50
2021/08/03 12:34:20;;;;;;;4.60;1.20;;;20.00;78.20;;;;;;4928267;29;20499;-50
2021/08/03 12:36:54;;;;;;;1.10;0.90;;;20.20;78.60;;;;;;4920283;29;20479;-50
2021/08/03 12:39:27;;;;;;;2.70;1.43;;;20.30;77.80;;;;;;4925834;29;20452;-50
2021/08/03 12:44:51;;;;;;;2.97;1.67;;;20.40;75.70;;;;;;4929090;29;20463;-50
2021/08/03 12:47:23;;;;;;;1.93;1.00;;;20.40;75.50;;;;;;4930465;29;20460;-50
2021/08/03 12:50:02;;;;;;;0.90;0.80;;;20.30;76.00;;;;;;4929569;29;20464;-50
2021/08/03 12:52:29;;;;;;;0.90;0.70;;;20.30;76.20;;;;;;4927540;29;20488;-50
2021/08/03 12:55:02;;;;;;;0.97;0.80;;;20.30;74.10;;;;;;4929588;29;20542;-50
2021/08/03 12:58:01;;;;;;;2.50;0.80;;;20.30;72.70;;;;;;4930492;29;20452;-50
2021/08/03 13:00:40;;;;;;;2.80;1.70;;;20.30;73.30;;;;;;4882057;29;20511;-50
2021/08/03 13:03:12;;;;;;;1.63;1.00;;;20.30;74.10;;;;;;4926936;29;20456;-50
2021/08/03 13:05:41;;;;;;;1.07;0.97;;;20.30;74.60;;;;;;4914210;29;20876;-50